Time;durP1;ratioP1;P1;durP2;ratioP2;P2;SDS_P1;SDS_P2;PMS_P1;PMS_P2;Temp;Humidity;BMP_temperature;BMP_pressure;BME280_temperature;BME280_humidity;BME280_pressure;Samples;Min_cycle;Max_cycle;Signal;HPM_P1;HPM_P2
2021/07/05 00:00:50;;;;;;;;;;;;;;;;;;2089353;28;46304;-70
2021/07/05 00:01:52;;;;;;;;;;;;;;;;;;2081246;28;45871;-69
2021/07/05 00:02:54;;;;;;;;;;;;;;;;;;2089515;28;46212;-70
2021/07/05 00:03:55;;;;;;;;;;;;;;;;;;2089826;28;45991;-71
2021/07/05 00:04:56;;;;;;;;;;;;;;;;;;2089943;28;46444;-71
2021/07/05 00:05:58;;;;;;;;;;;;;;;;;;2089724;28;46430;-71
2021/07/05 00:06:59;;;;;;;;;;;;;;;;;;2089561;28;46456;-71
2021/07/05 00:08:01;;;;;;;;;;;;;;;;;;2088775;28;44072;-71
2021/07/05 00:09:03;;;;;;;;;;;;;;;;;;2089047;28;45329;-71
2021/07/05 00:10:06;;;;;;;;;;;;;;;;;;2081699;28;45323;-72
2021/07/05 00:11:07;;;;;;;;;;;;;;;;;;2089351;28;45379;-73
2021/07/05 00:12:09;;;;;;;;;;;;;;;;;;2080860;28;45225;-73
2021/07/05 00:13:10;;;;;;;;;;;;;;;;;;2081141;28;45508;-72
2021/07/05 00:14:14;;;;;;;;;;;;;;;;;;2081648;28;45640;-72
2021/07/05 00:15:19;;;;;;;;;;;;;;;;;;2081808;28;43976;-72
2021/07/05 00:16:21;;;;;;;;;;;;;;;;;;2081533;28;46247;-73
2021/07/05 00:17:22;;;;;;;;;;;;;;;;;;2082037;28;43200;-72
2021/07/05 00:18:24;;;;;;;;;;;;;;;;;;2081105;28;46760;-71
2021/07/05 00:19:25;;;;;;;;;;;;;;;;;;2080991;28;43741;-71
2021/07/05 00:20:28;;;;;;;;;;;;;;;;;;2081730;28;43953;-72
2021/07/05 00:21:29;;;;;;;;;;;;;;;;;;2081794;28;46257;-72
2021/07/05 00:22:31;;;;;;;;;;;;;;;;;;2082117;28;44086;-72
2021/07/05 00:23:32;;;;;;;;;;;;;;;;;;2081112;28;43880;-72
2021/07/05 00:24:33;;;;;;;;;;;;;;;;;;2081348;28;45179;-72
2021/07/05 00:25:35;;;;;;;;;;;;;;;;;;2081701;28;45326;-72
2021/07/05 00:26:36;;;;;;;;;;;;;;;;;;2080889;28;42509;-72
2021/07/05 00:27:39;;;;;;;;;;;;;;;;;;2081064;28;45471;-72
2021/07/05 00:28:40;;;;;;;;;;;;;;;;;;2080958;28;44024;-72
2021/07/05 00:29:42;;;;;;;;;;;;;;;;;;2089395;28;45795;-72
2021/07/05 00:30:44;;;;;;;;;;;;;;;;;;2097390;28;45536;-72
2021/07/05 00:31:45;;;;;;;;;;;;;;;;;;2081632;28;45618;-72
2021/07/05 00:32:47;;;;;;;;;;;;;;;;;;2081551;28;45191;-72
2021/07/05 00:33:50;;;;;;;;;;;;;;;;;;2081513;28;45520;-72
2021/07/05 00:34:51;;;;;;;;;;;;;;;;;;2081009;28;45528;-72
2021/07/05 00:35:52;;;;;;;;;;;;;;;;;;2080732;28;45439;-72
2021/07/05 00:36:54;;;;;;;;;;;;;;;;;;2081008;28;44457;-72
2021/07/05 00:37:56;;;;;;;;;;;;;;;;;;2085785;28;46589;-72
2021/07/05 00:38:58;;;;;;;;;;;;;;;;;;2089961;28;45724;-72
2021/07/05 00:39:59;;;;;;;;;;;;;;;;;;2088947;28;47868;-72
2021/07/05 00:41:02;;;;;;;;;;;;;;;;;;2089278;28;46830;-72
2021/07/05 00:42:04;;;;;;;;;;;;;;;;;;2088911;28;45502;-72
2021/07/05 00:43:05;;;;;;;;;;;;;;;;;;2089314;28;45372;-72
2021/07/05 00:44:07;;;;;;;;;;;;;;;;;;2088866;28;46625;-72
2021/07/05 00:45:09;;;;;;;;;;;;;;;;;;2089089;28;45414;-72
2021/07/05 00:46:10;;;;;;;;;;;;;;;;;;2089096;28;45630;-72
2021/07/05 00:47:12;;;;;;;;;;;;;;;;;;2090188;28;38513;-72
2021/07/05 00:48:14;;;;;;;;;;;;;;;;;;2089651;28;47252;-72
2021/07/05 00:49:15;;;;;;;;;;;;;;;;;;2088710;28;46471;-72
2021/07/05 00:50:18;;;;;;;;;;;;;;;;;;2089267;28;43680;-72
2021/07/05 00:51:20;;;;;;;;;;;;;;;;;;2081084;28;45950;-72
2021/07/05 00:52:22;;;;;;;;;;;;;;;;;;2088839;28;46197;-72
2021/07/05 00:53:23;;;;;;;;;;;;;;;;;;2088911;28;46799;-70
2021/07/05 00:54:25;;;;;;;;;;;;;;;;;;2088934;28;45847;-72
2021/07/05 00:55:26;;;;;;;;;;;;;;;;;;2089409;28;45761;-72
2021/07/05 00:56:28;;;;;;;;;;;;;;;;;;2088538;28;46178;-71
2021/07/05 00:57:29;;;;;;;;;;;;;;;;;;2089562;28;47052;-71
2021/07/05 00:58:31;;;;;;;;;;;;;;;;;;2089508;28;45912;-71
2021/07/05 00:59:32;;;;;;;;;;;;;;;;;;2089638;28;44486;-71
2021/07/05 01:00:34;;;;;;;;;;;;;;;;;;2088975;28;46992;-72
2021/07/05 01:01:36;;;;;;;;;;;;;;;;;;2088920;28;46960;-71
2021/07/05 01:02:40;;;;;;;;;;;;;;;;;;2088856;28;47119;-71
2021/07/05 01:03:43;;;;;;;;;;;;;;;;;;2089034;28;45902;-71
2021/07/05 01:04:44;;;;;;;;;;;;;;;;;;2080769;28;47439;-72
2021/07/05 01:05:46;;;;;;;;;;;;;;;;;;2088980;28;47337;-71
2021/07/05 01:06:47;;;;;;;;;;;;;;;;;;2080693;28;45118;-71
2021/07/05 01:07:49;;;;;;;;;;;;;;;;;;2084887;28;46074;-70
2021/07/05 01:08:51;;;;;;;;;;;;;;;;;;2081568;28;45475;-70
2021/07/05 01:09:52;;;;;;;;;;;;;;;;;;2089257;28;44844;-70
2021/07/05 01:10:54;;;;;;;;;;;;;;;;;;2088793;28;46498;-70
2021/07/05 01:11:55;;;;;;;;;;;;;;;;;;2072599;28;45174;-70
2021/07/05 01:12:57;;;;;;;;;;;;;;;;;;2080500;28;45205;-69
2021/07/05 01:13:58;;;;;;;;;;;;;;;;;;2080437;28;43943;-70
2021/07/05 01:15:00;;;;;;;;;;;;;;;;;;2072640;28;44278;-70
2021/07/05 01:16:02;;;;;;;;;;;;;;;;;;2080380;28;45108;-69
2021/07/05 01:17:10;;;;;;;;;;;;;;;;;;2080660;28;45511;-69
2021/07/05 01:18:12;;;;;;;;;;;;;;;;;;2081874;28;45229;-69
2021/07/05 01:19:13;;;;;;;;;;;;;;;;;;2088550;28;48294;-69
2021/07/05 01:20:16;;;;;;;;;;;;;;;;;;2080555;28;45325;-69
2021/07/05 01:21:17;;;;;;;;;;;;;;;;;;2080606;28;47126;-70
2021/07/05 01:22:19;;;;;;;;;;;;;;;;;;2081123;28;45121;-70
2021/07/05 01:23:20;;;;;;;;;;;;;;;;;;2080543;28;44645;-70
2021/07/05 01:24:22;;;;;;;;;;;;;;;;;;2080895;28;46288;-72
2021/07/05 01:25:24;;;;;;;;;;;;;;;;;;2088940;28;46591;-71
2021/07/05 01:26:26;;;;;;;;;;;;;;;;;;2088398;28;45230;-72
2021/07/05 01:27:27;;;;;;;;;;;;;;;;;;2081169;28;46221;-72
2021/07/05 01:28:29;;;;;;;;;;;;;;;;;;2088676;28;45340;-72
2021/07/05 01:29:30;;;;;;;;;;;;;;;;;;2088742;28;45366;-72
2021/07/05 01:30:32;;;;;;;;;;;;;;;;;;2072902;28;45702;-72
2021/07/05 01:31:35;;;;;;;;;;;;;;;;;;2080512;28;46485;-72
2021/07/05 01:32:36;;;;;;;;;;;;;;;;;;2081055;28;45296;-71
2021/07/05 01:33:38;;;;;;;;;;;;;;;;;;2082725;28;45588;-72
2021/07/05 01:34:39;;;;;;;;;;;;;;;;;;2088871;28;45530;-71
2021/07/05 01:35:41;;;;;;;;;;;;;;;;;;2089400;28;46488;-71
2021/07/05 01:36:44;;;;;;;;;;;;;;;;;;2089242;28;45518;-72
2021/07/05 01:37:46;;;;;;;;;;;;;;;;;;2089365;28;45604;-72
2021/07/05 01:38:50;;;;;;;;;;;;;;;;;;2089533;28;46556;-72
2021/07/05 01:39:52;;;;;;;;;;;;;;;;;;2089051;28;44995;-72
2021/07/05 01:40:58;;;;;;;;;;;;;;;;;;2080733;28;43424;-72
2021/07/05 01:42:00;;;;;;;;;;;;;;;;;;2080933;28;45444;-72
2021/07/05 01:43:01;;;;;;;;;;;;;;;;;;2080530;28;46517;-71
2021/07/05 01:44:03;;;;;;;;;;;;;;;;;;2088817;28;45359;-70
2021/07/05 01:45:05;;;;;;;;;;;;;;;;;;2088818;28;45516;-70
2021/07/05 01:46:06;;;;;;;;;;;;;;;;;;2088504;28;48657;-70
2021/07/05 01:47:08;;;;;;;;;;;;;;;;;;2088798;28;46524;-70
2021/07/05 01:48:09;;;;;;;;;;;;;;;;;;2088620;28;43985;-70
2021/07/05 01:49:11;;;;;;;;;;;;;;;;;;2088754;28;45655;-70
2021/07/05 01:50:12;;;;;;;;;;;;;;;;;;2088678;28;46598;-71
2021/07/05 01:51:14;;;;;;;;;;;;;;;;;;2088687;28;47050;-70
2021/07/05 01:52:15;;;;;;;;;;;;;;;;;;2088797;28;46988;-70
2021/07/05 01:53:19;;;;;;;;;;;;;;;;;;2097175;28;39692;-70
2021/07/05 01:54:20;;;;;;;;;;;;;;;;;;2088686;28;45923;-70
2021/07/05 01:55:33;;;;;;;;;;;;;;;;;;2088809;28;45918;-69
2021/07/05 01:56:35;;;;;;;;;;;;;;;;;;2088630;28;47222;-70
2021/07/05 01:57:38;;;;;;;;;;;;;;;;;;2088823;28;47325;-70
2021/07/05 01:58:39;;;;;;;;;;;;;;;;;;2088692;28;47122;-70
2021/07/05 01:59:41;;;;;;;;;;;;;;;;;;2089456;28;41629;-70
2021/07/05 02:00:46;;;;;;;;;;;;;;;;;;2089296;28;45748;-71
2021/07/05 02:01:47;;;;;;;;;;;;;;;;;;2089377;28;46188;-71
2021/07/05 02:02:52;;;;;;;;;;;;;;;;;;2090116;28;44921;-71
2021/07/05 02:03:53;;;;;;;;;;;;;;;;;;2093791;28;45877;-70
2021/07/05 02:04:55;;;;;;;;;;;;;;;;;;2090133;28;45772;-70
2021/07/05 02:05:56;;;;;;;;;;;;;;;;;;2089871;28;44699;-69
2021/07/05 02:06:57;;;;;;;;;;;;;;;;;;2090131;28;45165;-70
2021/07/05 02:07:59;;;;;;;;;;;;;;;;;;2090225;28;45786;-69
2021/07/05 02:09:03;;;;;;;;;;;;;;;;;;2090018;28;47091;-70
2021/07/05 02:10:06;;;;;;;;;;;;;;;;;;2082283;28;45840;-69
2021/07/05 02:11:07;;;;;;;;;;;;;;;;;;2081995;28;45869;-70
2021/07/05 02:12:09;;;;;;;;;;;;;;;;;;2073666;28;44788;-70
2021/07/05 02:13:21;;;;;;;;;;;;;;;;;;2081802;28;44547;-69
2021/07/05 02:14:23;;;;;;;;;;;;;;;;;;2081946;28;45376;-70
2021/07/05 02:15:25;;;;;;;;;;;;;;;;;;2082104;28;47231;-69
2021/07/05 02:16:26;;;;;;;;;;;;;;;;;;2089928;28;46542;-69
2021/07/05 02:17:28;;;;;;;;;;;;;;;;;;2081729;28;46298;-69
2021/07/05 02:18:30;;;;;;;;;;;;;;;;;;2081781;28;46262;-69
2021/07/05 02:19:32;;;;;;;;;;;;;;;;;;2081781;28;46370;-69
2021/07/05 02:20:33;;;;;;;;;;;;;;;;;;2081745;28;46309;-69
2021/07/05 02:21:34;;;;;;;;;;;;;;;;;;2082003;28;45310;-69
2021/07/05 02:22:37;;;;;;;;;;;;;;;;;;2081621;28;44362;-69
2021/07/05 02:23:38;;;;;;;;;;;;;;;;;;2081558;28;46782;-70
2021/07/05 02:24:40;;;;;;;;;;;;;;;;;;2082396;28;46339;-69
2021/07/05 02:25:42;;;;;;;;;;;;;;;;;;2081630;28;45659;-69
2021/07/05 02:26:43;;;;;;;;;;;;;;;;;;2081109;28;46323;-69
2021/07/05 02:27:45;;;;;;;;;;;;;;;;;;2089428;28;44045;-70
2021/07/05 02:28:47;;;;;;;;;;;;;;;;;;2089314;28;44373;-72
2021/07/05 02:29:49;;;;;;;;;;;;;;;;;;2081237;28;46533;-72
2021/07/05 02:30:50;;;;;;;;;;;;;;;;;;2081592;28;46391;-72
2021/07/05 02:31:52;;;;;;;;;;;;;;;;;;2081750;28;45299;-72
2021/07/05 02:32:55;;;;;;;;;;;;;;;;;;2089844;28;46365;-73
2021/07/05 02:33:56;;;;;;;;;;;;;;;;;;2089723;28;45159;-73
2021/07/05 02:34:58;;;;;;;;;;;;;;;;;;2082396;28;43698;-73
2021/07/05 02:36:00;;;;;;;;;;;;;;;;;;2082175;28;48551;-73
2021/07/05 02:37:02;;;;;;;;;;;;;;;;;;2090255;28;46706;-73
2021/07/05 02:38:10;;;;;;;;;;;;;;;;;;2089650;28;44124;-73
2021/07/05 02:39:12;;;;;;;;;;;;;;;;;;2089919;28;46870;-72
2021/07/05 02:40:15;;;;;;;;;;;;;;;;;;2089680;28;44273;-72
2021/07/05 02:41:16;;;;;;;;;;;;;;;;;;2081725;28;45717;-72
2021/07/05 02:42:18;;;;;;;;;;;;;;;;;;2082032;28;45578;-73
2021/07/05 02:43:20;;;;;;;;;;;;;;;;;;2082305;28;44535;-72
2021/07/05 02:44:21;;;;;;;;;;;;;;;;;;2082289;28;45322;-71
2021/07/05 02:45:24;;;;;;;;;;;;;;;;;;2082258;28;46508;-71
2021/07/05 02:46:26;;;;;;;;;;;;;;;;;;2089727;28;44315;-71
2021/07/05 02:47:27;;;;;;;;;;;;;;;;;;2081426;28;49062;-71
2021/07/05 02:48:30;;;;;;;;;;;;;;;;;;2073582;28;44571;-72
2021/07/05 02:49:32;;;;;;;;;;;;;;;;;;2081446;28;43879;-71
2021/07/05 02:50:33;;;;;;;;;;;;;;;;;;2081601;28;44289;-71
2021/07/05 02:51:35;;;;;;;;;;;;;;;;;;2081635;28;43674;-71
2021/07/05 02:52:37;;;;;;;;;;;;;;;;;;2073388;28;45424;-71
2021/07/05 02:53:38;;;;;;;;;;;;;;;;;;2081513;28;46366;-73
2021/07/05 02:54:40;;;;;;;;;;;;;;;;;;2082240;28;47262;-73
2021/07/05 02:55:41;;;;;;;;;;;;;;;;;;2082286;28;45424;-74
2021/07/05 02:56:43;;;;;;;;;;;;;;;;;;2089598;28;45572;-74
2021/07/05 02:57:45;;;;;;;;;;;;;;;;;;2081530;28;45696;-74
2021/07/05 02:58:47;;;;;;;;;;;;;;;;;;2081768;28;46370;-74
2021/07/05 02:59:48;;;;;;;;;;;;;;;;;;2090097;28;39217;-74
2021/07/05 03:00:54;;;;;;;;;;;;;;;;;;2089647;28;46848;-71
2021/07/05 03:01:56;;;;;;;;;;;;;;;;;;2089844;28;45707;-72
2021/07/05 03:02:57;;;;;;;;;;;;;;;;;;2089581;28;47236;-72
2021/07/05 03:03:59;;;;;;;;;;;;;;;;;;2081592;28;45738;-72
2021/07/05 03:05:01;;;;;;;;;;;;;;;;;;2081492;28;44439;-70
2021/07/05 03:06:03;;;;;;;;;;;;;;;;;;2081189;28;47171;-70
2021/07/05 03:07:04;;;;;;;;;;;;;;;;;;2081619;28;45882;-71
2021/07/05 03:08:06;;;;;;;;;;;;;;;;;;2081559;28;47204;-72
2021/07/05 03:09:08;;;;;;;;;;;;;;;;;;2089355;28;45802;-71
2021/07/05 03:10:11;;;;;;;;;;;;;;;;;;2081355;28;46266;-71
2021/07/05 03:11:13;;;;;;;;;;;;;;;;;;2081904;28;46894;-71
2021/07/05 03:12:14;;;;;;;;;;;;;;;;;;2081086;28;46319;-70
2021/07/05 03:13:17;;;;;;;;;;;;;;;;;;2081431;28;47397;-71
2021/07/05 03:14:19;;;;;;;;;;;;;;;;;;2089643;28;46184;-71
2021/07/05 03:15:20;;;;;;;;;;;;;;;;;;2081416;28;46042;-71
2021/07/05 03:16:21;;;;;;;;;;;;;;;;;;2073191;28;45864;-72
2021/07/05 03:17:23;;;;;;;;;;;;;;;;;;2081540;28;45743;-72
2021/07/05 03:18:25;;;;;;;;;;;;;;;;;;2082045;28;46952;-70
2021/07/05 03:19:26;;;;;;;;;;;;;;;;;;2082023;28;46971;-71
2021/07/05 03:20:28;;;;;;;;;;;;;;;;;;2082180;28;45919;-73
2021/07/05 03:21:30;;;;;;;;;;;;;;;;;;2082417;28;45895;-71
2021/07/05 03:22:32;;;;;;;;;;;;;;;;;;2081883;28;46495;-71
2021/07/05 03:23:33;;;;;;;;;;;;;;;;;;2082145;28;43200;-71
2021/07/05 03:24:34;;;;;;;;;;;;;;;;;;2081900;28;45503;-71
2021/07/05 03:25:37;;;;;;;;;;;;;;;;;;2081385;28;45598;-71
2021/07/05 03:26:38;;;;;;;;;;;;;;;;;;2081104;28;43800;-71
2021/07/05 03:27:40;;;;;;;;;;;;;;;;;;2081952;28;42781;-71
2021/07/05 03:28:41;;;;;;;;;;;;;;;;;;2081370;28;44086;-71
2021/07/05 03:29:43;;;;;;;;;;;;;;;;;;2081433;28;45250;-71
2021/07/05 03:30:45;;;;;;;;;;;;;;;;;;2089534;28;44160;-71
2021/07/05 03:31:46;;;;;;;;;;;;;;;;;;2082133;28;45409;-72
2021/07/05 03:32:48;;;;;;;;;;;;;;;;;;2081664;28;43750;-71
2021/07/05 03:33:50;;;;;;;;;;;;;;;;;;2081242;28;45661;-71
2021/07/05 03:34:51;;;;;;;;;;;;;;;;;;2089424;28;44034;-71
2021/07/05 03:35:52;;;;;;;;;;;;;;;;;;2089298;28;46524;-71
2021/07/05 03:36:54;;;;;;;;;;;;;;;;;;2089523;28;46700;-72
2021/07/05 03:37:56;;;;;;;;;;;;;;;;;;2090076;28;46483;-71
2021/07/05 03:38:57;;;;;;;;;;;;;;;;;;2089589;28;45223;-71
2021/07/05 03:39:59;;;;;;;;;;;;;;;;;;2081222;28;46592;-71
2021/07/05 03:41:00;;;;;;;;;;;;;;;;;;2081824;28;43238;-71
2021/07/05 03:42:02;;;;;;;;;;;;;;;;;;2081278;28;44147;-71
2021/07/05 03:43:04;;;;;;;;;;;;;;;;;;2089847;28;45265;-71
2021/07/05 03:44:05;;;;;;;;;;;;;;;;;;2089504;28;45393;-71
2021/07/05 03:45:08;;;;;;;;;;;;;;;;;;2089566;28;43010;-71
2021/07/05 03:46:09;;;;;;;;;;;;;;;;;;2096254;28;46116;-71
2021/07/05 03:47:10;;;;;;;;;;;;;;;;;;2089700;28;45420;-71
2021/07/05 03:48:12;;;;;;;;;;;;;;;;;;2098003;28;42316;-71
2021/07/05 03:49:13;;;;;;;;;;;;;;;;;;2098124;28;45149;-71
2021/07/05 03:50:16;;;;;;;;;;;;;;;;;;2089593;28;44295;-71
2021/07/05 03:51:17;;;;;;;;;;;;;;;;;;2098034;28;45396;-71
2021/07/05 03:52:19;;;;;;;;;;;;;;;;;;2098115;28;43871;-71
2021/07/05 03:53:20;;;;;;;;;;;;;;;;;;2097626;28;45851;-71
2021/07/05 03:54:22;;;;;;;;;;;;;;;;;;2097753;28;45529;-70
2021/07/05 03:55:24;;;;;;;;;;;;;;;;;;2097418;28;44174;-70
2021/07/05 03:56:26;;;;;;;;;;;;;;;;;;2089308;28;43970;-70
2021/07/05 03:57:27;;;;;;;;;;;;;;;;;;2089472;28;45695;-70
2021/07/05 03:58:29;;;;;;;;;;;;;;;;;;2089812;28;43860;-70
2021/07/05 03:59:30;;;;;;;;;;;;;;;;;;2097413;28;45374;-70
2021/07/05 04:00:36;;;;;;;;;;;;;;;;;;2097733;28;46519;-70
2021/07/05 04:01:38;;;;;;;;;;;;;;;;;;2097601;28;47043;-71
2021/07/05 04:02:39;;;;;;;;;;;;;;;;;;2098288;28;45314;-71
2021/07/05 04:03:41;;;;;;;;;;;;;;;;;;2097796;28;44244;-71
2021/07/05 04:04:43;;;;;;;;;;;;;;;;;;2089619;28;46444;-72
2021/07/05 04:05:45;;;;;;;;;;;;;;;;;;2097849;28;37529;-71
2021/07/05 04:06:46;;;;;;;;;;;;;;;;;;2097609;28;46953;-72
2021/07/05 04:07:48;;;;;;;;;;;;;;;;;;2089444;28;45035;-72
2021/07/05 04:08:49;;;;;;;;;;;;;;;;;;2097747;28;44589;-71
2021/07/05 04:09:51;;;;;;;;;;;;;;;;;;2097938;28;44648;-72
2021/07/05 04:10:52;;;;;;;;;;;;;;;;;;2091262;28;44358;-72
2021/07/05 04:11:54;;;;;;;;;;;;;;;;;;2089306;28;47091;-71
2021/07/05 04:12:55;;;;;;;;;;;;;;;;;;2089261;28;45897;-71
2021/07/05 04:13:57;;;;;;;;;;;;;;;;;;2089551;28;44308;-72
2021/07/05 04:14:58;;;;;;;;;;;;;;;;;;2089142;28;46080;-72
2021/07/05 04:16:00;;;;;;;;;;;;;;;;;;2089224;28;46996;-71
2021/07/05 04:17:01;;;;;;;;;;;;;;;;;;2089170;28;45915;-71
2021/07/05 04:18:04;;;;;;;;;;;;;;;;;;2089934;28;47393;-71
2021/07/05 04:19:06;;;;;;;;;;;;;;;;;;2089332;28;45150;-71
2021/07/05 04:20:08;;;;;;;;;;;;;;;;;;2089281;28;46944;-71
2021/07/05 04:21:10;;;;;;;;;;;;;;;;;;2089219;28;44794;-70
2021/07/05 04:22:15;;;;;;;;;;;;;;;;;;2089045;28;46814;-70
2021/07/05 04:23:17;;;;;;;;;;;;;;;;;;2089317;28;44946;-70
2021/07/05 04:24:18;;;;;;;;;;;;;;;;;;2096768;28;47015;-70
2021/07/05 04:25:21;;;;;;;;;;;;;;;;;;2088948;28;46245;-70
2021/07/05 04:26:22;;;;;;;;;;;;;;;;;;2089141;28;45996;-70
2021/07/05 04:27:23;;;;;;;;;;;;;;;;;;2089846;28;45821;-71
2021/07/05 04:28:25;;;;;;;;;;;;;;;;;;2089475;28;43737;-71
2021/07/05 04:29:26;;;;;;;;;;;;;;;;;;2089700;28;45264;-71
2021/07/05 04:30:28;;;;;;;;;;;;;;;;;;2089105;28;46797;-72
2021/07/05 04:31:30;;;;;;;;;;;;;;;;;;2089351;28;44030;-72
2021/07/05 04:32:31;;;;;;;;;;;;;;;;;;2089158;28;44189;-72
2021/07/05 04:33:33;;;;;;;;;;;;;;;;;;2089005;28;45563;-72
2021/07/05 04:34:34;;;;;;;;;;;;;;;;;;2081087;28;46709;-72
2021/07/05 04:35:36;;;;;;;;;;;;;;;;;;2081166;28;46506;-72
2021/07/05 04:36:37;;;;;;;;;;;;;;;;;;2089141;28;44222;-72
2021/07/05 04:37:39;;;;;;;;;;;;;;;;;;2089113;28;44288;-72
2021/07/05 04:38:41;;;;;;;;;;;;;;;;;;2089178;28;42845;-71
2021/07/05 04:39:43;;;;;;;;;;;;;;;;;;2089021;28;45236;-71
2021/07/05 04:40:44;;;;;;;;;;;;;;;;;;2089446;28;45461;-71
2021/07/05 04:41:45;;;;;;;;;;;;;;;;;;2089050;28;46467;-70
2021/07/05 04:42:48;;;;;;;;;;;;;;;;;;2088796;28;44963;-70
2021/07/05 04:43:49;;;;;;;;;;;;;;;;;;2089560;28;44831;-70
2021/07/05 04:44:51;;;;;;;;;;;;;;;;;;2081173;28;43844;-70
2021/07/05 04:45:54;;;;;;;;;;;;;;;;;;2089020;28;46221;-70
2021/07/05 04:46:56;;;;;;;;;;;;;;;;;;2089281;28;44100;-70
2021/07/05 04:47:59;;;;;;;;;;;;;;;;;;2080685;28;44055;-70
2021/07/05 04:49:01;;;;;;;;;;;;;;;;;;2090043;28;45217;-70
2021/07/05 04:50:02;;;;;;;;;;;;;;;;;;2089863;28;45780;-70
2021/07/05 04:51:04;;;;;;;;;;;;;;;;;;2090121;28;44278;-70
2021/07/05 04:52:06;;;;;;;;;;;;;;;;;;2089193;28;44282;-70
2021/07/05 04:53:07;;;;;;;;;;;;;;;;;;2089477;28;43355;-70
2021/07/05 04:54:12;;;;;;;;;;;;;;;;;;2081770;28;45758;-71
2021/07/05 04:55:15;;;;;;;;;;;;;;;;;;2089634;28;44120;-71
2021/07/05 04:56:16;;;;;;;;;;;;;;;;;;2089208;28;46568;-71
2021/07/05 04:57:18;;;;;;;;;;;;;;;;;;2089092;28;45463;-71
2021/07/05 04:58:20;;;;;;;;;;;;;;;;;;2089096;28;45324;-70
2021/07/05 04:59:21;;;;;;;;;;;;;;;;;;2089089;28;45576;-71
2021/07/05 05:00:24;;;;;;;;;;;;;;;;;;2089228;28;45604;-71
2021/07/05 05:01:29;;;;;;;;;;;;;;;;;;2096676;28;46660;-71
2021/07/05 05:02:30;;;;;;;;;;;;;;;;;;2088795;28;45488;-71
2021/07/05 05:03:32;;;;;;;;;;;;;;;;;;2088892;28;45812;-71
2021/07/05 05:04:33;;;;;;;;;;;;;;;;;;2089101;28;47075;-71
2021/07/05 05:05:35;;;;;;;;;;;;;;;;;;2080680;28;44128;-71
2021/07/05 05:06:40;;;;;;;;;;;;;;;;;;2088743;28;46895;-72
2021/07/05 05:07:41;;;;;;;;;;;;;;;;;;2080740;28;47067;-71
2021/07/05 05:08:42;;;;;;;;;;;;;;;;;;2080863;28;46863;-71
2021/07/05 05:09:44;;;;;;;;;;;;;;;;;;2080845;28;45318;-72
2021/07/05 05:10:46;;;;;;;;;;;;;;;;;;2080851;28;45981;-70
2021/07/05 05:11:47;;;;;;;;;;;;;;;;;;2089099;28;38789;-70
2021/07/05 05:12:49;;;;;;;;;;;;;;;;;;2081172;28;45890;-70
2021/07/05 05:13:50;;;;;;;;;;;;;;;;;;2080503;28;45912;-70
2021/07/05 05:14:51;;;;;;;;;;;;;;;;;;2080697;28;47096;-71
2021/07/05 05:15:53;;;;;;;;;;;;;;;;;;2088599;28;44589;-70
2021/07/05 05:16:54;;;;;;;;;;;;;;;;;;2080699;28;46986;-71
2021/07/05 05:17:56;;;;;;;;;;;;;;;;;;2080641;28;47321;-72
2021/07/05 05:18:57;;;;;;;;;;;;;;;;;;2080678;28;44628;-71
2021/07/05 05:19:59;;;;;;;;;;;;;;;;;;2080703;28;47018;-70
2021/07/05 05:21:00;;;;;;;;;;;;;;;;;;2080565;28;44514;-71
2021/07/05 05:22:04;;;;;;;;;;;;;;;;;;2080825;28;43264;-70
2021/07/05 05:23:05;;;;;;;;;;;;;;;;;;2080589;28;44532;-71
2021/07/05 05:24:07;;;;;;;;;;;;;;;;;;2080710;28;46737;-70
2021/07/05 05:25:09;;;;;;;;;;;;;;;;;;2080507;28;47262;-71
2021/07/05 05:26:11;;;;;;;;;;;;;;;;;;2080640;28;46046;-71
2021/07/05 05:27:12;;;;;;;;;;;;;;;;;;2080482;28;44800;-72
2021/07/05 05:28:13;;;;;;;;;;;;;;;;;;2080557;28;46901;-71
2021/07/05 05:29:15;;;;;;;;;;;;;;;;;;2080618;28;47243;-71
2021/07/05 05:30:17;;;;;;;;;;;;;;;;;;2080745;28;44444;-71
2021/07/05 05:31:19;;;;;;;;;;;;;;;;;;2080521;28;47198;-71
2021/07/05 05:32:20;;;;;;;;;;;;;;;;;;2080543;28;46497;-69
2021/07/05 05:33:22;;;;;;;;;;;;;;;;;;2080884;28;44773;-69
2021/07/05 05:34:24;;;;;;;;;;;;;;;;;;2080784;28;45521;-70
2021/07/05 05:35:26;;;;;;;;;;;;;;;;;;2080443;28;45313;-70
2021/07/05 05:36:27;;;;;;;;;;;;;;;;;;2080534;28;44085;-70
2021/07/05 05:37:29;;;;;;;;;;;;;;;;;;2088600;28;46282;-70
2021/07/05 05:38:30;;;;;;;;;;;;;;;;;;2081102;28;43159;-70
2021/07/05 05:39:35;;;;;;;;;;;;;;;;;;2080333;28;44072;-70
2021/07/05 05:40:37;;;;;;;;;;;;;;;;;;2072401;28;46722;-70
2021/07/05 05:41:38;;;;;;;;;;;;;;;;;;2080404;28;44466;-71
2021/07/05 05:42:40;;;;;;;;;;;;;;;;;;2088442;28;45266;-71
2021/07/05 05:43:44;;;;;;;;;;;;;;;;;;2081129;28;45633;-71
2021/07/05 05:44:46;;;;;;;;;;;;;;;;;;2080528;28;46535;-71
2021/07/05 05:45:47;;;;;;;;;;;;;;;;;;2072292;28;43985;-71
2021/07/05 05:46:49;;;;;;;;;;;;;;;;;;2072456;28;43621;-71
2021/07/05 05:47:50;;;;;;;;;;;;;;;;;;2080417;28;46407;-71
2021/07/05 05:48:52;;;;;;;;;;;;;;;;;;2081006;28;44348;-71
2021/07/05 05:49:53;;;;;;;;;;;;;;;;;;2080938;28;45143;-70
2021/07/05 05:50:55;;;;;;;;;;;;;;;;;;2081075;28;44368;-71
2021/07/05 05:51:57;;;;;;;;;;;;;;;;;;2080410;28;45519;-73
2021/07/05 05:52:58;;;;;;;;;;;;;;;;;;2080546;28;45316;-72
2021/07/05 05:54:00;;;;;;;;;;;;;;;;;;2088501;28;45471;-71
2021/07/05 05:55:03;;;;;;;;;;;;;;;;;;2081361;28;45172;-72
2021/07/05 05:56:05;;;;;;;;;;;;;;;;;;2080727;28;45655;-72
2021/07/05 05:57:08;;;;;;;;;;;;;;;;;;2080617;28;43236;-72
2021/07/05 05:58:09;;;;;;;;;;;;;;;;;;2080661;28;45236;-72
2021/07/05 05:59:11;;;;;;;;;;;;;;;;;;2080468;28;46913;-72
2021/07/05 06:00:17;;;;;;;;;;;;;;;;;;2080492;28;45414;-73
2021/07/05 06:01:19;;;;;;;;;;;;;;;;;;2080476;28;45642;-73
2021/07/05 06:02:20;;;;;;;;;;;;;;;;;;2080140;28;45715;-72
2021/07/05 06:03:21;;;;;;;;;;;;;;;;;;2088633;28;45188;-72
2021/07/05 06:04:23;;;;;;;;;;;;;;;;;;2080788;28;45947;-73
2021/07/05 06:05:24;;;;;;;;;;;;;;;;;;2081460;28;46966;-73
2021/07/05 06:06:26;;;;;;;;;;;;;;;;;;2088556;28;46681;-72
2021/07/05 06:07:27;;;;;;;;;;;;;;;;;;2088753;28;46841;-72
2021/07/05 06:08:29;;;;;;;;;;;;;;;;;;2088814;28;45000;-72
2021/07/05 06:09:30;;;;;;;;;;;;;;;;;;2080490;28;44274;-72
2021/07/05 06:10:32;;;;;;;;;;;;;;;;;;2088666;28;46487;-72
2021/07/05 06:11:35;;;;;;;;;;;;;;;;;;2088502;28;44165;-72
2021/07/05 06:12:37;;;;;;;;;;;;;;;;;;2080519;28;46870;-72
2021/07/05 06:13:38;;;;;;;;;;;;;;;;;;2088405;28;45836;-71
2021/07/05 06:14:40;;;;;;;;;;;;;;;;;;2088772;28;44101;-71
2021/07/05 06:15:45;;;;;;;;;;;;;;;;;;2089088;28;44006;-71
2021/07/05 06:16:46;;;;;;;;;;;;;;;;;;2088249;28;46523;-71
2021/07/05 06:17:48;;;;;;;;;;;;;;;;;;2088716;28;37855;-71
2021/07/05 06:18:50;;;;;;;;;;;;;;;;;;2088456;28;47137;-71
2021/07/05 06:19:51;;;;;;;;;;;;;;;;;;2088492;28;45023;-71
2021/07/05 06:20:53;;;;;;;;;;;;;;;;;;2088012;28;44815;-71
2021/07/05 06:21:55;;;;;;;;;;;;;;;;;;2088336;28;46220;-71
2021/07/05 06:22:57;;;;;;;;;;;;;;;;;;2088890;28;44919;-71
2021/07/05 06:23:58;;;;;;;;;;;;;;;;;;2088974;28;47273;-71
2021/07/05 06:25:00;;;;;;;;;;;;;;;;;;2088427;28;44595;-71
2021/07/05 06:26:03;;;;;;;;;;;;;;;;;;2088017;28;46355;-71
2021/07/05 06:27:05;;;;;;;;;;;;;;;;;;2088455;28;45712;-71
2021/07/05 06:28:06;;;;;;;;;;;;;;;;;;2088361;28;47250;-71
2021/07/05 06:29:08;;;;;;;;;;;;;;;;;;2089500;28;43981;-72
2021/07/05 06:30:09;;;;;;;;;;;;;;;;;;2088441;28;44615;-73
2021/07/05 06:31:11;;;;;;;;;;;;;;;;;;2080434;28;46797;-72
2021/07/05 06:32:12;;;;;;;;;;;;;;;;;;2088252;28;45758;-72
2021/07/05 06:33:14;;;;;;;;;;;;;;;;;;2088001;28;45069;-72
2021/07/05 06:34:15;;;;;;;;;;;;;;;;;;2088547;28;46614;-72
2021/07/05 06:35:17;;;;;;;;;;;;;;;;;;2089188;28;46172;-70
2021/07/05 06:36:19;;;;;;;;;;;;;;;;;;2088880;28;45184;-71
2021/07/05 06:37:20;;;;;;;;;;;;;;;;;;2088561;28;47427;-71
2021/07/05 06:38:22;;;;;;;;;;;;;;;;;;2080184;28;46900;-71
2021/07/05 06:39:23;;;;;;;;;;;;;;;;;;2088649;28;46114;-71
2021/07/05 06:40:25;;;;;;;;;;;;;;;;;;2088680;28;46733;-71
2021/07/05 06:41:27;;;;;;;;;;;;;;;;;;2096750;28;44839;-71
2021/07/05 06:42:28;;;;;;;;;;;;;;;;;;2088010;28;45323;-71
2021/07/05 06:43:30;;;;;;;;;;;;;;;;;;2088433;28;45249;-71
2021/07/05 06:44:41;;;;;;;;;;;;;;;;;;2088901;28;46494;-69
2021/07/05 06:45:46;;;;;;;;;;;;;;;;;;2079951;28;45498;-74
2021/07/05 06:46:48;;;;;;;;;;;;;;;;;;2078384;28;44252;-70
2021/07/05 06:47:49;;;;;;;;;;;;;;;;;;2080848;28;45289;-71
2021/07/05 06:48:51;;;;;;;;;;;;;;;;;;2073415;28;44212;-70
2021/07/05 06:49:52;;;;;;;;;;;;;;;;;;2081543;28;46363;-72
2021/07/05 06:50:54;;;;;;;;;;;;;;;;;;2083106;28;46156;-71
2021/07/05 06:51:55;;;;;;;;;;;;;;;;;;2089339;28;46263;-71
2021/07/05 06:52:57;;;;;;;;;;;;;;;;;;2090084;28;46701;-70
2021/07/05 06:53:59;;;;;;;;;;;;;;;;;;2089434;28;44096;-70
2021/07/05 06:55:01;;;;;;;;;;;;;;;;;;2081456;28;45606;-69
2021/07/05 06:56:03;;;;;;;;;;;;;;;;;;2081746;28;45437;-70
2021/07/05 06:57:05;;;;;;;;;;;;;;;;;;2089535;28;46441;-69
2021/07/05 06:58:06;;;;;;;;;;;;;;;;;;2089419;28;45595;-70
2021/07/05 06:59:08;;;;;;;;;;;;;;;;;;2089853;28;45273;-71
2021/07/05 07:00:18;;;;;;;;;;;;;;;;;;2091187;28;45573;-70
2021/07/05 07:01:23;;;;;;;;;;;;;;;;;;2089350;28;43749;-69
2021/07/05 07:02:24;;;;;;;;;;;;;;;;;;2089699;28;46148;-69
2021/07/05 07:03:29;;;;;;;;;;;;;;;;;;2089386;28;45397;-69